sensor_id;sensor_type;location;lat;lon;timestamp;pressure;altitude;pressure_sealevel;temperature;humidity
70976;BME280;58635;51.198;6.010;2023-03-30T00:02:26;100512.09;;;16.98;49.52
70976;BME280;58635;51.198;6.010;2023-03-30T00:04:55;100512.59;;;16.94;49.79
70976;BME280;58635;51.198;6.010;2023-03-30T00:07:20;100512.59;;;16.94;50.05
70976;BME280;58635;51.198;6.010;2023-03-30T00:09:46;100515.44;;;16.93;49.91
70976;BME280;58635;51.198;6.010;2023-03-30T00:12:12;100512.03;;;16.92;49.94
70976;BME280;58635;51.198;6.010;2023-03-30T00:14:39;100507.63;;;16.93;49.70
70976;BME280;58635;51.198;6.010;2023-03-30T00:17:08;100498.16;;;16.92;49.84
70976;BME280;58635;51.198;6.010;2023-03-30T00:19:34;100507.63;;;16.93;49.66
70976;BME280;58635;51.198;6.010;2023-03-30T00:22:03;100511.00;;;16.93;49.73
70976;BME280;58635;51.198;6.010;2023-03-30T00:24:29;100504.75;;;16.94;49.78
70976;BME280;58635;51.198;6.010;2023-03-30T00:26:54;100495.88;;;16.95;49.69
70976;BME280;58635;51.198;6.010;2023-03-30T00:29:20;100487.31;;;17.00;49.36
70976;BME280;58635;51.198;6.010;2023-03-30T00:31:45;100480.81;;;17.03;49.54
70976;BME280;58635;51.198;6.010;2023-03-30T00:34:11;100479.31;;;17.07;49.42
70976;BME280;58635;51.198;6.010;2023-03-30T00:36:36;100485.38;;;17.12;48.87
70976;BME280;58635;51.198;6.010;2023-03-30T00:39:03;100473.16;;;17.18;48.64
70976;BME280;58635;51.198;6.010;2023-03-30T00:41:31;100465.38;;;17.23;48.62
70976;BME280;58635;51.198;6.010;2023-03-30T00:47:04;100473.56;;;17.32;48.36
70976;BME280;58635;51.198;6.010;2023-03-30T00:49:30;100473.63;;;17.37;47.95
70976;BME280;58635;51.198;6.010;2023-03-30T00:51:56;100466.88;;;17.41;48.05
70976;BME280;58635;51.198;6.010;2023-03-30T00:54:21;100470.03;;;17.43;47.65
70976;BME280;58635;51.198;6.010;2023-03-30T00:56:47;100461.94;;;17.44;47.94
70976;BME280;58635;51.198;6.010;2023-03-30T00:59:12;100465.88;;;17.47;47.61
70976;BME280;58635;51.198;6.010;2023-03-30T01:01:39;100457.00;;;17.48;47.85
70976;BME280;58635;51.198;6.010;2023-03-30T01:04:07;100463.81;;;17.49;47.81
70976;BME280;58635;51.198;6.010;2023-03-30T01:06:34;100455.72;;;17.50;47.79
70976;BME280;58635;51.198;6.010;2023-03-30T01:09:01;100453.88;;;17.51;47.92
70976;BME280;58635;51.198;6.010;2023-03-30T01:11:27;100448.66;;;17.51;47.94
70976;BME280;58635;51.198;6.010;2023-03-30T01:13:57;100454.13;;;17.49;47.69
70976;BME280;58635;51.198;6.010;2023-03-30T01:33:54;100455.94;;;17.22;48.51
70976;BME280;58635;51.198;6.010;2023-03-30T01:42:12;100438.41;;;17.17;48.80
70976;BME280;58635;51.198;6.010;2023-03-30T01:50:04;100423.44;;;17.13;49.12
70976;BME280;58635;51.198;6.010;2023-03-30T01:52:45;100417.41;;;17.12;49.22
70976;BME280;58635;51.198;6.010;2023-03-30T01:55:39;100416.88;;;17.10;49.15
70976;BME280;58635;51.198;6.010;2023-03-30T02:00:50;100413.72;;;17.08;49.33
70976;BME280;58635;51.198;6.010;2023-03-30T02:03:28;100417.91;;;17.09;49.31
70976;BME280;58635;51.198;6.010;2023-03-30T02:06:00;100423.94;;;17.10;49.38
70976;BME280;58635;51.198;6.010;2023-03-30T02:08:30;100421.06;;;17.11;49.65
70976;BME280;58635;51.198;6.010;2023-03-30T02:10:57;100419.25;;;17.12;49.55
70976;BME280;58635;51.198;6.010;2023-03-30T02:13:25;100417.16;;;17.14;49.52
70976;BME280;58635;51.198;6.010;2023-03-30T02:15:58;100410.91;;;17.15;49.27
70976;BME280;58635;51.198;6.010;2023-03-30T02:18:26;100415.34;;;17.14;49.33
70976;BME280;58635;51.198;6.010;2023-03-30T02:20:52;100410.91;;;17.15;49.12
70976;BME280;58635;51.198;6.010;2023-03-30T02:23:21;100402.28;;;17.14;49.21
70976;BME280;58635;51.198;6.010;2023-03-30T02:25:48;100398.63;;;17.15;49.28
70976;BME280;58635;51.198;6.010;2023-03-30T02:28:14;100399.41;;;17.16;49.22
70976;BME280;58635;51.198;6.010;2023-03-30T02:30:43;100393.97;;;17.17;49.16
70976;BME280;58635;51.198;6.010;2023-03-30T02:33:23;100392.38;;;17.16;49.26
70976;BME280;58635;51.198;6.010;2023-03-30T02:36:10;100403.38;;;17.18;49.11
70976;BME280;58635;51.198;6.010;2023-03-30T02:39:15;100397.38;;;17.18;48.79
70976;BME280;58635;51.198;6.010;2023-03-30T02:42:18;100393.41;;;17.15;49.10
70976;BME280;58635;51.198;6.010;2023-03-30T02:47:54;100408.53;;;17.13;48.91
70976;BME280;58635;51.198;6.010;2023-03-30T02:50:33;100398.59;;;17.10;49.00
70976;BME280;58635;51.198;6.010;2023-03-30T02:53:23;100394.16;;;17.11;49.19
70976;BME280;58635;51.198;6.010;2023-03-30T03:01:39;100401.44;;;17.09;48.96
70976;BME280;58635;51.198;6.010;2023-03-30T03:04:07;100405.09;;;17.08;49.12
70976;BME280;58635;51.198;6.010;2023-03-30T03:06:34;100398.31;;;17.07;49.25
70976;BME280;58635;51.198;6.010;2023-03-30T03:09:02;100406.69;;;17.09;49.17
70976;BME280;58635;51.198;6.010;2023-03-30T03:11:28;100412.94;;;17.08;49.43
70976;BME280;58635;51.198;6.010;2023-03-30T03:13:53;100416.88;;;17.10;49.26
70976;BME280;58635;51.198;6.010;2023-03-30T03:16:19;100411.91;;;17.09;49.34
70976;BME280;58635;51.198;6.010;2023-03-30T03:18:45;100410.09;;;17.09;49.43
70976;BME280;58635;51.198;6.010;2023-03-30T03:21:12;100396.75;;;17.11;49.46
70976;BME280;58635;51.198;6.010;2023-03-30T03:23:38;100396.75;;;17.11;49.29
70976;BME280;58635;51.198;6.010;2023-03-30T03:26:04;100394.94;;;17.11;49.28
70976;BME280;58635;51.198;6.010;2023-03-30T03:28:31;100393.91;;;17.12;49.38
70976;BME280;58635;51.198;6.010;2023-03-30T03:30:56;100388.69;;;17.12;49.38
70976;BME280;58635;51.198;6.010;2023-03-30T03:33:27;100386.84;;;17.13;49.33
70976;BME280;58635;51.198;6.010;2023-03-30T03:35:53;100383.19;;;17.14;49.49
70976;BME280;58635;51.198;6.010;2023-03-30T03:38:20;100384.25;;;17.13;49.80
70976;BME280;58635;51.198;6.010;2023-03-30T03:40:52;100371.16;;;17.13;49.54
70976;BME280;58635;51.198;6.010;2023-03-30T03:43:18;100378.47;;;17.11;49.73
70976;BME280;58635;51.198;6.010;2023-03-30T03:45:45;100390.75;;;17.10;49.91
70976;BME280;58635;51.198;6.010;2023-03-30T03:48:11;100379.50;;;17.10;49.84
70976;BME280;58635;51.198;6.010;2023-03-30T03:50:37;100370.09;;;17.09;50.02
70976;BME280;58635;51.198;6.010;2023-03-30T03:53:02;100377.16;;;17.08;50.16
70976;BME280;58635;51.198;6.010;2023-03-30T03:55:28;100374.00;;;17.06;49.83
70976;BME280;58635;51.198;6.010;2023-03-30T03:57:54;100381.84;;;17.06;49.81
70976;BME280;58635;51.198;6.010;2023-03-30T04:00:19;100375.81;;;17.06;50.18
70976;BME280;58635;51.198;6.010;2023-03-30T04:02:46;100377.88;;;17.04;50.03
70976;BME280;58635;51.198;6.010;2023-03-30T04:05:12;100381.75;;;17.01;50.41
70976;BME280;58635;51.198;6.010;2023-03-30T04:07:37;100373.63;;;16.98;50.49
70976;BME280;58635;51.198;6.010;2023-03-30T04:10:03;100383.31;;;16.97;50.77
70976;BME280;58635;51.198;6.010;2023-03-30T04:12:29;100391.38;;;16.95;50.84
70976;BME280;58635;51.198;6.010;2023-03-30T04:14:55;100387.97;;;16.95;50.93
70976;BME280;58635;51.198;6.010;2023-03-30T04:17:21;100386.41;;;16.94;50.85
70976;BME280;58635;51.198;6.010;2023-03-30T04:19:51;100373.88;;;16.96;50.92
70976;BME280;58635;51.198;6.010;2023-03-30T04:22:19;100377.03;;;16.98;50.79
70976;BME280;58635;51.198;6.010;2023-03-30T04:24:48;100372.84;;;16.97;50.90
70976;BME280;58635;51.198;6.010;2023-03-30T04:27:14;100376.00;;;16.99;50.96
70976;BME280;58635;51.198;6.010;2023-03-30T04:29:41;100371.56;;;17.00;51.16
70976;BME280;58635;51.198;6.010;2023-03-30T04:32:09;100371.56;;;17.00;51.01
70976;BME280;58635;51.198;6.010;2023-03-30T04:34:37;100369.50;;;17.02;50.76
70976;BME280;58635;51.198;6.010;2023-03-30T04:37:07;100362.69;;;17.01;50.99
70976;BME280;58635;51.198;6.010;2023-03-30T04:39:33;100367.91;;;17.01;50.87
70976;BME280;58635;51.198;6.010;2023-03-30T04:41:58;100367.66;;;17.02;51.14
70976;BME280;58635;51.198;6.010;2023-03-30T04:44:26;100365.06;;;17.02;50.87
70976;BME280;58635;51.198;6.010;2023-03-30T04:46:53;100355.63;;;17.01;50.80
70976;BME280;58635;51.198;6.010;2023-03-30T04:49:18;100366.88;;;17.02;50.96
70976;BME280;58635;51.198;6.010;2023-03-30T04:51:44;100368.69;;;17.01;51.02
70976;BME280;58635;51.198;6.010;2023-03-30T04:54:09;100362.44;;;17.02;50.79
70976;BME280;58635;51.198;6.010;2023-03-30T04:56:35;100370.03;;;17.04;50.74
70976;BME280;58635;51.198;6.010;2023-03-30T04:59:00;100368.19;;;17.04;51.08
70976;BME280;58635;51.198;6.010;2023-03-30T05:01:25;100362.75;;;17.06;50.75
70976;BME280;58635;51.198;6.010;2023-03-30T05:03:51;100373.44;;;17.04;50.69
70976;BME280;58635;51.198;6.010;2023-03-30T05:06:16;100367.97;;;17.06;50.64
70976;BME280;58635;51.198;6.010;2023-03-30T05:08:42;100368.78;;;17.06;50.75
70976;BME280;58635;51.198;6.010;2023-03-30T05:11:07;100370.34;;;17.07;50.71
70976;BME280;58635;51.198;6.010;2023-03-30T05:13:33;100367.72;;;17.07;50.83
70976;BME280;58635;51.198;6.010;2023-03-30T05:15:58;100373.75;;;17.08;50.72
70976;BME280;58635;51.198;6.010;2023-03-30T05:18:23;100373.75;;;17.08;50.61
70976;BME280;58635;51.198;6.010;2023-03-30T05:20:49;100373.75;;;17.08;50.56
70976;BME280;58635;51.198;6.010;2023-03-30T05:23:15;100374.53;;;17.08;50.67
70976;BME280;58635;51.198;6.010;2023-03-30T05:25:41;100370.34;;;17.07;50.44
70976;BME280;58635;51.198;6.010;2023-03-30T05:28:10;100368.19;;;17.04;50.20
70976;BME280;58635;51.198;6.010;2023-03-30T05:30:36;100355.94;;;17.05;50.35
70976;BME280;58635;51.198;6.010;2023-03-30T05:33:01;100364.00;;;17.03;50.10
70976;BME280;58635;51.198;6.010;2023-03-30T05:35:27;100357.22;;;17.02;49.92
70976;BME280;58635;51.198;6.010;2023-03-30T05:37:52;100361.13;;;17.00;49.93
70976;BME280;58635;51.198;6.010;2023-03-30T05:40:19;100360.31;;;16.99;49.98
70976;BME280;58635;51.198;6.010;2023-03-30T05:42:44;100360.31;;;16.99;50.10
70976;BME280;58635;51.198;6.010;2023-03-30T05:45:10;100357.44;;;16.95;50.19
70976;BME280;58635;51.198;6.010;2023-03-30T05:47:35;100355.06;;;16.94;50.26
70976;BME280;58635;51.198;6.010;2023-03-30T05:50:01;100355.28;;;16.92;50.20
70976;BME280;58635;51.198;6.010;2023-03-30T05:52:27;100360.47;;;16.87;50.45
70976;BME280;58635;51.198;6.010;2023-03-30T05:54:52;100364.09;;;16.86;50.60
70976;BME280;58635;51.198;6.010;2023-03-30T05:57:18;100365.16;;;16.85;50.70
70976;BME280;58635;51.198;6.010;2023-03-30T05:59:43;100368.25;;;16.82;50.80
70976;BME280;58635;51.198;6.010;2023-03-30T06:02:10;100371.66;;;16.83;50.72
70976;BME280;58635;51.198;6.010;2023-03-30T06:04:37;100379.00;;;16.86;50.79
70976;BME280;58635;51.198;6.010;2023-03-30T06:07:03;100389.03;;;16.94;50.90
70976;BME280;58635;51.198;6.010;2023-03-30T06:09:28;100385.41;;;17.00;50.82
70976;BME280;58635;51.198;6.010;2023-03-30T06:11:54;100385.97;;;17.02;50.93
70976;BME280;58635;51.198;6.010;2023-03-30T06:14:20;100380.47;;;17.04;50.89
70976;BME280;58635;51.198;6.010;2023-03-30T06:16:46;100383.66;;;17.06;50.98
70976;BME280;58635;51.198;6.010;2023-03-30T06:19:11;100385.78;;;17.09;51.00
70976;BME280;58635;51.198;6.010;2023-03-30T06:21:38;100392.88;;;17.13;51.26
70976;BME280;58635;51.198;6.010;2023-03-30T06:24:04;100400.00;;;17.18;51.33
70976;BME280;58635;51.198;6.010;2023-03-30T06:26:29;100418.31;;;17.23;51.89
70976;BME280;58635;51.198;6.010;2023-03-30T06:28:55;100413.34;;;17.21;53.35
70976;BME280;58635;51.198;6.010;2023-03-30T06:31:20;100412.97;;;17.13;53.16
70976;BME280;58635;51.198;6.010;2023-03-30T06:33:46;100410.88;;;17.10;53.96
70976;BME280;58635;51.198;6.010;2023-03-30T06:36:12;100402.50;;;17.08;53.74
70976;BME280;58635;51.198;6.010;2023-03-30T06:38:38;100419.75;;;17.09;54.17
70976;BME280;58635;51.198;6.010;2023-03-30T06:41:05;100425.22;;;17.07;53.70
70976;BME280;58635;51.198;6.010;2023-03-30T06:43:32;100430.97;;;17.09;53.64
70976;BME280;58635;51.198;6.010;2023-03-30T06:45:58;100430.50;;;17.12;53.77
70976;BME280;58635;51.198;6.010;2023-03-30T06:48:23;100440.22;;;17.17;53.80
70976;BME280;58635;51.198;6.010;2023-03-30T06:50:50;100439.19;;;17.18;53.82
70976;BME280;58635;51.198;6.010;2023-03-30T06:53:16;100461.13;;;17.17;53.73
70976;BME280;58635;51.198;6.010;2023-03-30T06:55:42;100456.63;;;17.12;53.56
70976;BME280;58635;51.198;6.010;2023-03-30T06:58:09;100456.31;;;17.09;54.10
70976;BME280;58635;51.198;6.010;2023-03-30T07:00:35;100450.56;;;17.07;54.18
70976;BME280;58635;51.198;6.010;2023-03-30T07:03:00;100456.31;;;17.09;54.12
70976;BME280;58635;51.198;6.010;2023-03-30T07:05:26;100471.47;;;17.07;54.35
70976;BME280;58635;51.198;6.010;2023-03-30T07:07:53;100462.84;;;17.06;54.61
70976;BME280;58635;51.198;6.010;2023-03-30T07:10:18;100472.25;;;17.07;54.52
70976;BME280;58635;51.198;6.010;2023-03-30T07:12:46;100465.50;;;17.11;54.42
70976;BME280;58635;51.198;6.010;2023-03-30T07:15:12;100475.44;;;17.14;54.70
70976;BME280;58635;51.198;6.010;2023-03-30T07:17:37;100478.06;;;17.14;54.93
70976;BME280;58635;51.198;6.010;2023-03-30T07:20:04;100480.22;;;17.17;54.51
70976;BME280;58635;51.198;6.010;2023-03-30T07:22:30;100486.44;;;17.16;54.82
70976;BME280;58635;51.198;6.010;2023-03-30T07:24:56;100487.28;;;17.17;54.53
70976;BME280;58635;51.198;6.010;2023-03-30T07:27:22;100480.94;;;17.13;54.86
70976;BME280;58635;51.198;6.010;2023-03-30T07:29:50;100480.94;;;17.13;54.53
70976;BME280;58635;51.198;6.010;2023-03-30T07:32:16;100485.44;;;17.17;54.68
70976;BME280;58635;51.198;6.010;2023-03-30T07:34:42;100478.59;;;17.16;54.80
70976;BME280;58635;51.198;6.010;2023-03-30T07:37:07;100490.66;;;17.17;54.76
70976;BME280;58635;51.198;6.010;2023-03-30T07:39:33;100488.28;;;17.16;54.54
70976;BME280;58635;51.198;6.010;2023-03-30T07:41:59;100496.34;;;17.14;54.64
70976;BME280;58635;51.198;6.010;2023-03-30T07:44:24;100497.16;;;17.15;54.52
70976;BME280;58635;51.198;6.010;2023-03-30T07:46:54;100505.31;;;17.18;54.73
70976;BME280;58635;51.198;6.010;2023-03-30T07:49:20;100501.97;;;17.23;54.59
70976;BME280;58635;51.198;6.010;2023-03-30T07:51:45;100504.88;;;17.27;54.68
70976;BME280;58635;51.198;6.010;2023-03-30T07:54:12;100502.88;;;17.34;54.89
70976;BME280;58635;51.198;6.010;2023-03-30T07:56:37;100502.44;;;17.42;54.47
70976;BME280;58635;51.198;6.010;2023-03-30T07:59:04;100505.72;;;17.54;54.23
70976;BME280;58635;51.198;6.010;2023-03-30T08:01:30;100509.22;;;17.65;53.64
70976;BME280;58635;51.198;6.010;2023-03-30T08:03:57;100503.09;;;17.76;53.10
70976;BME280;58635;51.198;6.010;2023-03-30T08:06:23;100514.13;;;17.83;53.12
70976;BME280;58635;51.198;6.010;2023-03-30T08:08:48;100518.56;;;17.82;52.85
70976;BME280;58635;51.198;6.010;2023-03-30T08:11:14;100519.09;;;17.85;52.43
70976;BME280;58635;51.198;6.010;2023-03-30T08:13:40;100521.22;;;17.88;52.30
70976;BME280;58635;51.198;6.010;2023-03-30T08:16:06;100532.00;;;17.91;52.32
70976;BME280;58635;51.198;6.010;2023-03-30T08:18:33;100525.28;;;18.00;52.65
70976;BME280;58635;51.198;6.010;2023-03-30T08:20:58;100526.13;;;18.11;51.92
70976;BME280;58635;51.198;6.010;2023-03-30T08:23:24;100522.53;;;18.17;51.38
70976;BME280;58635;51.198;6.010;2023-03-30T08:25:49;100524.44;;;18.27;51.09
70976;BME280;58635;51.198;6.010;2023-03-30T08:28:20;100529.00;;;18.41;51.36
70976;BME280;58635;51.198;6.010;2023-03-30T08:30:46;100520.69;;;18.50;50.85
70976;BME280;58635;51.198;6.010;2023-03-30T08:33:12;100519.59;;;18.46;50.78
70976;BME280;58635;51.198;6.010;2023-03-30T08:35:38;100526.09;;;18.38;50.63
70976;BME280;58635;51.198;6.010;2023-03-30T08:38:04;100524.22;;;18.33;50.58
70976;BME280;58635;51.198;6.010;2023-03-30T08:40:30;100534.41;;;18.30;50.37
70976;BME280;58635;51.198;6.010;2023-03-30T08:45:35;100541.47;;;18.24;50.24
70976;BME280;58635;51.198;6.010;2023-03-30T08:48:01;100519.72;;;18.24;49.57
70976;BME280;58635;51.198;6.010;2023-03-30T08:50:32;100547.22;;;18.26;49.65
70976;BME280;58635;51.198;6.010;2023-03-30T08:52:59;100538.34;;;18.27;49.34
70976;BME280;58635;51.198;6.010;2023-03-30T08:55:46;100528.94;;;18.31;49.28
70976;BME280;58635;51.198;6.010;2023-03-30T09:01:01;100536.09;;;18.46;49.00
70976;BME280;58635;51.198;6.010;2023-03-30T09:06:30;100550.31;;;18.55;49.13
70976;BME280;58635;51.198;6.010;2023-03-30T09:08:52;100555.34;;;18.62;49.21
70976;BME280;58635;51.198;6.010;2023-03-30T09:11:29;100560.09;;;18.65;48.49
70976;BME280;58635;51.198;6.010;2023-03-30T09:13:56;100568.44;;;18.62;48.29
70976;BME280;58635;51.198;6.010;2023-03-30T09:16:37;100568.13;;;18.53;47.91
70976;BME280;58635;51.198;6.010;2023-03-30T09:19:04;100570.41;;;18.45;47.98
70976;BME280;58635;51.198;6.010;2023-03-30T09:21:34;100577.97;;;18.41;47.92
70976;BME280;58635;51.198;6.010;2023-03-30T09:24:10;100590.97;;;18.31;48.44
70976;BME280;58635;51.198;6.010;2023-03-30T09:27:00;100583.00;;;18.16;48.42
70976;BME280;58635;51.198;6.010;2023-03-30T09:29:31;100582.94;;;18.10;48.35
70976;BME280;58635;51.198;6.010;2023-03-30T09:32:21;100596.47;;;18.02;49.04
70976;BME280;58635;51.198;6.010;2023-03-30T09:35:04;100606.63;;;17.99;49.32
70976;BME280;58635;51.198;6.010;2023-03-30T09:37:33;100598.31;;;18.02;49.32
70976;BME280;58635;51.198;6.010;2023-03-30T09:40:35;100604.09;;;18.04;49.49
70976;BME280;58635;51.198;6.010;2023-03-30T09:43:15;100607.75;;;18.03;49.83
70976;BME280;58635;51.198;6.010;2023-03-30T09:45:44;100600.38;;;18.00;50.26
70976;BME280;58635;51.198;6.010;2023-03-30T09:48:10;100610.84;;;18.00;50.18
70976;BME280;58635;51.198;6.010;2023-03-30T09:50:41;100605.56;;;17.95;50.63
70976;BME280;58635;51.198;6.010;2023-03-30T09:53:24;100606.78;;;17.87;51.18
70976;BME280;58635;51.198;6.010;2023-03-30T09:56:09;100593.41;;;17.83;51.00
70976;BME280;58635;51.198;6.010;2023-03-30T09:58:40;100608.25;;;17.78;51.28
70976;BME280;58635;51.198;6.010;2023-03-30T10:01:13;100613.91;;;17.70;51.80
70976;BME280;58635;51.198;6.010;2023-03-30T10:03:42;100612.00;;;17.65;52.31
70976;BME280;58635;51.198;6.010;2023-03-30T10:06:16;100608.13;;;17.68;52.45
70976;BME280;58635;51.198;6.010;2023-03-30T10:08:51;100603.28;;;17.76;52.61
70976;BME280;58635;51.198;6.010;2023-03-30T10:11:34;100611.00;;;17.88;52.12
70976;BME280;58635;51.198;6.010;2023-03-30T10:14:02;100608.53;;;18.03;52.02
70976;BME280;58635;51.198;6.010;2023-03-30T10:16:30;100614.78;;;18.29;51.66
70976;BME280;58635;51.198;6.010;2023-03-30T10:19:03;100609.75;;;18.50;51.05
70976;BME280;58635;51.198;6.010;2023-03-30T10:21:40;100601.75;;;18.66;50.53
70976;BME280;58635;51.198;6.010;2023-03-30T10:24:18;100609.50;;;18.83;50.16
70976;BME280;58635;51.198;6.010;2023-03-30T10:26:49;100604.06;;;18.95;49.73
70976;BME280;58635;51.198;6.010;2023-03-30T10:29:16;100607.03;;;19.09;49.54
70976;BME280;58635;51.198;6.010;2023-03-30T10:31:45;100617.06;;;19.22;48.88
70976;BME280;58635;51.198;6.010;2023-03-30T10:34:22;100611.63;;;19.34;48.32
70976;BME280;58635;51.198;6.010;2023-03-30T10:36:52;100603.28;;;19.42;47.88
70976;BME280;58635;51.198;6.010;2023-03-30T10:39:29;100599.94;;;19.56;47.23
70976;BME280;58635;51.198;6.010;2023-03-30T10:41:55;100608.13;;;19.70;46.95
70976;BME280;58635;51.198;6.010;2023-03-30T10:44:24;100614.69;;;19.73;46.51
70976;BME280;58635;51.198;6.010;2023-03-30T10:46:59;100615.72;;;19.72;46.42
70976;BME280;58635;51.198;6.010;2023-03-30T10:49:41;100612.09;;;19.78;46.32
70976;BME280;58635;51.198;6.010;2023-03-30T10:57:50;100607.94;;;20.12;45.25
70976;BME280;58635;51.198;6.010;2023-03-30T11:00:43;100611.13;;;20.30;44.67
70976;BME280;58635;51.198;6.010;2023-03-30T11:03:18;100608.50;;;20.30;44.04
70976;BME280;58635;51.198;6.010;2023-03-30T11:05:48;100617.16;;;20.20;44.36
70976;BME280;58635;51.198;6.010;2023-03-30T11:08:27;100613.75;;;20.14;45.10
70976;BME280;58635;51.198;6.010;2023-03-30T11:10:55;100624.75;;;20.17;45.27
70976;BME280;58635;51.198;6.010;2023-03-30T11:13:39;100620.84;;;20.29;44.61
70976;BME280;58635;51.198;6.010;2023-03-30T11:16:11;100621.09;;;20.33;44.74
70976;BME280;58635;51.198;6.010;2023-03-30T11:18:52;100611.91;;;20.40;44.48
70976;BME280;58635;51.198;6.010;2023-03-30T11:21:27;100608.78;;;20.43;43.95
70976;BME280;58635;51.198;6.010;2023-03-30T11:23:56;100600.34;;;20.41;43.91
70976;BME280;58635;51.198;6.010;2023-03-30T11:26:44;100613.78;;;20.50;43.56
70976;BME280;58635;51.198;6.010;2023-03-30T11:31:50;100625.59;;;20.42;44.20
70976;BME280;58635;51.198;6.010;2023-03-30T11:37:58;100634.22;;;20.23;47.37
70976;BME280;58635;51.198;6.010;2023-03-30T11:40:50;100632.91;;;20.20;47.35
70976;BME280;58635;51.198;6.010;2023-03-30T11:43:19;100639.19;;;20.24;47.61
70976;BME280;58635;51.198;6.010;2023-03-30T11:54:10;100650.16;;;19.33;49.48
70976;BME280;58635;51.198;6.010;2023-03-30T11:59:29;100639.34;;;19.24;50.67
70976;BME280;58635;51.198;6.010;2023-03-30T12:05:00;100639.44;;;19.40;49.69
70976;BME280;58635;51.198;6.010;2023-03-30T12:07:49;100623.47;;;19.51;48.83
70976;BME280;58635;51.198;6.010;2023-03-30T12:10:24;100641.78;;;19.41;48.86
70976;BME280;58635;51.198;6.010;2023-03-30T12:12:52;100645.44;;;19.35;49.40
70976;BME280;58635;51.198;6.010;2023-03-30T12:34:18;100638.31;;;19.25;50.92
70976;BME280;58635;51.198;6.010;2023-03-30T12:37:15;100626.69;;;19.59;50.18
70976;BME280;58635;51.198;6.010;2023-03-30T12:39:44;100638.28;;;19.68;49.25
70976;BME280;58635;51.198;6.010;2023-03-30T12:45:28;100637.38;;;19.52;48.77
70976;BME280;58635;51.198;6.010;2023-03-30T12:50:44;100649.72;;;19.51;48.43
70976;BME280;58635;51.198;6.010;2023-03-30T12:56:04;100640.41;;;19.76;48.19
70976;BME280;58635;51.198;6.010;2023-03-30T12:58:46;100636.72;;;19.77;48.33
70976;BME280;58635;51.198;6.010;2023-03-30T13:04:05;100634.03;;;19.56;48.38
70976;BME280;58635;51.198;6.010;2023-03-30T13:06:47;100628.97;;;19.45;48.74
70976;BME280;58635;51.198;6.010;2023-03-30T13:40:18;100604.81;;;20.87;44.46
70976;BME280;58635;51.198;6.010;2023-03-30T13:50:58;100594.84;;;20.68;43.51
70976;BME280;58635;51.198;6.010;2023-03-30T13:53:27;100582.22;;;20.81;42.80
70976;BME280;58635;51.198;6.010;2023-03-30T13:55:55;100592.69;;;21.01;42.31
70976;BME280;58635;51.198;6.010;2023-03-30T13:58:32;100585.56;;;21.12;41.35
70976;BME280;58635;51.198;6.010;2023-03-30T14:01:00;100593.44;;;21.12;41.79
70976;BME280;58635;51.198;6.010;2023-03-30T14:08:35;100592.31;;;21.43;41.92
70976;BME280;58635;51.198;6.010;2023-03-30T14:11:04;100608.81;;;21.59;41.76
70976;BME280;58635;51.198;6.010;2023-03-30T14:13:32;100592.44;;;21.72;41.69
70976;BME280;58635;51.198;6.010;2023-03-30T14:15:58;100585.03;;;21.79;41.38
70976;BME280;58635;51.198;6.010;2023-03-30T14:18:24;100578.72;;;21.75;41.03
70976;BME280;58635;51.198;6.010;2023-03-30T14:20:55;100578.53;;;21.62;41.37
70976;BME280;58635;51.198;6.010;2023-03-30T14:23:34;100574.63;;;21.54;41.42
70976;BME280;58635;51.198;6.010;2023-03-30T14:26:10;100561.72;;;21.57;41.34
70976;BME280;58635;51.198;6.010;2023-03-30T14:28:36;100560.44;;;21.50;41.58
70976;BME280;58635;51.198;6.010;2023-03-30T14:31:18;100565.19;;;21.48;41.82
70976;BME280;58635;51.198;6.010;2023-03-30T14:33:45;100563.91;;;21.40;41.77
70976;BME280;58635;51.198;6.010;2023-03-30T14:36:16;100563.44;;;21.33;41.30
70976;BME280;58635;51.198;6.010;2023-03-30T14:38:51;100583.69;;;21.17;41.49
70976;BME280;58635;51.198;6.010;2023-03-30T14:41:21;100622.41;;;21.01;42.70
70976;BME280;58635;51.198;6.010;2023-03-30T14:44:00;100632.16;;;20.76;44.66
70976;BME280;58635;51.198;6.010;2023-03-30T14:46:38;100640.06;;;20.50;45.46
70976;BME280;58635;51.198;6.010;2023-03-30T14:49:05;100627.41;;;20.32;46.14
70976;BME280;58635;51.198;6.010;2023-03-30T14:51:40;100623.47;;;20.29;47.07
70976;BME280;58635;51.198;6.010;2023-03-30T14:54:09;100614.78;;;20.24;47.36
70976;BME280;58635;51.198;6.010;2023-03-30T14:56:37;100621.09;;;20.18;47.95
70976;BME280;58635;51.198;6.010;2023-03-30T14:59:04;100613.97;;;20.08;48.39
70976;BME280;58635;51.198;6.010;2023-03-30T15:01:31;100617.09;;;20.00;48.50
70976;BME280;58635;51.198;6.010;2023-03-30T15:04:11;100612.13;;;19.93;48.73
70976;BME280;58635;51.198;6.010;2023-03-30T15:06:38;100611.59;;;19.91;48.34
70976;BME280;58635;51.198;6.010;2023-03-30T15:09:12;100604.47;;;19.86;48.31
70976;BME280;58635;51.198;6.010;2023-03-30T15:11:38;100602.63;;;19.82;48.35
70976;BME280;58635;51.198;6.010;2023-03-30T15:14:11;100597.38;;;19.82;48.35
70976;BME280;58635;51.198;6.010;2023-03-30T15:16:38;100590.81;;;19.79;48.26
70976;BME280;58635;51.198;6.010;2023-03-30T15:19:14;100587.16;;;19.80;48.56
70976;BME280;58635;51.198;6.010;2023-03-30T15:21:45;100590.00;;;19.74;48.26
70976;BME280;58635;51.198;6.010;2023-03-30T15:24:15;100597.63;;;19.70;48.48
70976;BME280;58635;51.198;6.010;2023-03-30T15:26:46;100594.44;;;19.63;48.56
70976;BME280;58635;51.198;6.010;2023-03-30T15:29:14;100597.56;;;19.55;48.69
70976;BME280;58635;51.198;6.010;2023-03-30T15:31:42;100607.75;;;19.51;48.82
70976;BME280;58635;51.198;6.010;2023-03-30T15:34:15;100606.41;;;19.44;49.06
70976;BME280;58635;51.198;6.010;2023-03-30T15:36:42;100605.06;;;19.36;49.33